createdAt,value
2017-04-08T00:00:48.660Z,7.84
2017-04-08T00:01:58.682Z,7.88
2017-04-08T00:03:07.975Z,7.79
2017-04-08T00:04:17.885Z,7.84
2017-04-08T00:05:27.601Z,7.84
2017-04-08T00:06:37.804Z,7.8
2017-04-08T00:07:47.394Z,7.84
2017-04-08T00:08:57.336Z,7.82
2017-04-08T00:10:06.991Z,7.88
2017-04-08T00:11:16.598Z,7.84
2017-04-08T00:12:26.995Z,7.85
2017-04-08T00:13:36.661Z,7.88
2017-04-08T00:14:46.592Z,7.84
2017-04-08T00:15:56.193Z,7.82
2017-04-08T00:17:06.219Z,7.76
2017-04-08T00:18:16.133Z,7.8
2017-04-08T00:19:25.400Z,7.76
2017-04-08T00:20:35.352Z,7.79
2017-04-08T00:21:45.285Z,7.74
2017-04-08T00:22:54.863Z,7.76
2017-04-08T00:24:05.012Z,7.8
2017-04-08T00:25:14.755Z,7.84
2017-04-08T00:26:25.002Z,7.8
2017-04-08T00:27:34.585Z,7.8
2017-04-08T00:28:44.618Z,7.74
2017-04-08T00:29:54.777Z,7.73
2017-04-08T00:31:04.369Z,7.79
2017-04-08T00:32:13.987Z,7.77
2017-04-08T00:33:23.564Z,7.79
2017-04-08T00:34:33.467Z,7.8
2017-04-08T00:35:43.671Z,7.77
2017-04-08T00:36:53.651Z,7.8
2017-04-08T00:38:03.597Z,7.74
2017-04-08T00:39:13.624Z,7.76
2017-04-08T00:40:23.531Z,7.76
2017-04-08T00:41:33.357Z,7.66
2017-04-08T00:42:43.307Z,7.69
2017-04-08T00:43:52.927Z,7.74
2017-04-08T00:45:02.855Z,7.7
2017-04-08T00:46:12.142Z,7.64
2017-04-08T00:47:22.322Z,7.74
2017-04-08T00:48:32.313Z,7.73
2017-04-08T00:49:42.240Z,7.62
2017-04-08T00:50:52.184Z,7.69
2017-04-08T00:52:02.174Z,7.61
2017-04-08T00:53:11.999Z,7.67
2017-04-08T00:54:21.594Z,7.62
2017-04-08T00:55:31.529Z,7.64
2017-04-08T00:56:41.221Z,7.58
2017-04-08T00:57:50.793Z,7.54
2017-04-08T00:59:00.354Z,7.54
2017-04-08T01:00:10.249Z,7.58
2017-04-08T01:01:20.164Z,7.62
2017-04-08T01:02:30.079Z,7.61
2017-04-08T01:03:39.887Z,7.58
2017-04-08T01:04:49.729Z,7.55
2017-04-08T01:05:59.380Z,7.58
2017-04-08T01:07:09.312Z,7.55
2017-04-08T01:08:19.226Z,7.54
2017-04-08T01:09:29.156Z,7.56
2017-04-08T01:10:38.365Z,7.52
2017-04-08T01:11:48.350Z,7.54
2017-04-08T01:12:58.249Z,7.52
2017-04-08T01:14:07.890Z,7.54
2017-04-08T01:15:17.833Z,7.54
2017-04-08T01:16:27.758Z,7.58
2017-04-08T01:17:37.815Z,7.59
2017-04-08T01:18:47.827Z,7.55
2017-04-08T01:19:57.438Z,7.55
2017-04-08T01:21:07.482Z,7.55
2017-04-08T01:22:17.774Z,7.59
2017-04-08T01:23:27.351Z,7.56
2017-04-08T01:24:37.297Z,7.54
2017-04-08T01:25:46.886Z,7.67
2017-04-08T01:26:56.469Z,7.64
2017-04-08T01:28:06.304Z,7.67
2017-04-08T01:29:16.209Z,7.67
2017-04-08T01:30:26.146Z,7.62
2017-04-08T01:31:36.100Z,7.67
2017-04-08T01:32:45.992Z,7.69
2017-04-08T01:33:55.513Z,7.64
2017-04-08T01:35:05.462Z,7.66
2017-04-08T01:36:15.414Z,7.8
2017-04-08T01:37:25.335Z,7.79
2017-04-08T01:38:35.256Z,7.79
2017-04-08T01:39:45.416Z,7.8
2017-04-08T01:40:55.077Z,7.77
2017-04-08T01:42:04.671Z,7.72
2017-04-08T01:43:14.261Z,7.82
2017-04-08T01:44:24.241Z,7.84
2017-04-08T01:45:34.472Z,7.74
2017-04-08T01:46:44.451Z,7.79
2017-04-08T01:47:54.115Z,7.84
2017-04-08T01:49:03.689Z,7.79
2017-04-08T01:50:13.269Z,7.76
2017-04-08T01:51:23.434Z,7.72
2017-04-08T01:52:33.049Z,7.82
2017-04-08T01:53:42.954Z,7.84
2017-04-08T01:54:52.889Z,7.87
2017-04-08T01:56:02.562Z,7.82
2017-04-08T01:57:12.743Z,7.8
2017-04-08T01:58:22.654Z,7.87
2017-04-08T01:59:32.594Z,7.79
2017-04-08T02:00:42.237Z,7.88
2017-04-08T02:01:52.277Z,7.85
2017-04-08T02:03:02.494Z,7.9
2017-04-08T02:04:12.065Z,7.85
2017-04-08T02:05:22.057Z,7.82
2017-04-08T02:06:31.988Z,7.82
2017-04-08T02:07:41.619Z,7.8
2017-04-08T02:08:51.459Z,7.85
2017-04-08T02:10:01.421Z,7.87
2017-04-08T02:11:11.342Z,7.88
2017-04-08T02:12:21.490Z,7.88
2017-04-08T02:13:31.067Z,7.88
2017-04-08T02:14:40.903Z,7.91
2017-04-08T02:15:50.833Z,7.9
2017-04-08T02:17:00.867Z,7.92
2017-04-08T02:18:10.794Z,7.94
2017-04-08T02:19:20.692Z,7.87
2017-04-08T02:20:30.859Z,7.82
2017-04-08T02:21:40.472Z,7.84
2017-04-08T02:22:50.538Z,7.87
2017-04-08T02:24:00.127Z,7.94
2017-04-08T02:25:09.382Z,7.85
2017-04-08T02:26:19.570Z,7.87
2017-04-08T02:27:29.158Z,7.91
2017-04-08T02:28:38.754Z,7.92
2017-04-08T02:29:48.680Z,7.87
2017-04-08T02:30:58.717Z,7.91
2017-04-08T02:32:08.269Z,7.88
2017-04-08T02:33:17.594Z,7.88
2017-04-08T02:34:27.528Z,7.98
2017-04-08T02:35:37.453Z,7.94
2017-04-08T02:36:47.400Z,7.88
2017-04-08T02:37:57.669Z,8.02
2017-04-08T02:39:07.685Z,7.99
2017-04-08T02:40:17.266Z,7.99
2017-04-08T02:41:26.875Z,8.06
2017-04-08T02:42:36.805Z,8.05
2017-04-08T02:43:47.149Z,8.03
2017-04-08T02:44:56.729Z,8.07
2017-04-08T02:46:06.635Z,8.02
2017-04-08T02:47:16.611Z,8.05
2017-04-08T02:48:26.574Z,8.05
2017-04-08T02:49:35.783Z,8.05
2017-04-08T02:50:45.486Z,7.98
2017-04-08T02:51:55.433Z,8.05
2017-04-08T02:53:05.450Z,8.1
2017-04-08T02:54:15.063Z,8.07
2017-04-08T02:55:25.221Z,8.09
2017-04-08T02:56:35.162Z,8.15
2017-04-08T02:57:44.919Z,8.12
2017-04-08T02:58:54.816Z,8.1
2017-04-08T03:00:04.509Z,8.09
2017-04-08T03:01:14.694Z,8.12
2017-04-08T03:02:24.590Z,8.16
2017-04-08T03:03:34.206Z,8.13
2017-04-08T03:04:44.096Z,8.15
2017-04-08T03:05:53.684Z,8.16
2017-04-08T03:07:03.513Z,8.21
2017-04-08T03:08:13.104Z,8.15
2017-04-08T03:09:22.046Z,8.16
2017-04-08T03:10:31.663Z,8.24
2017-04-08T03:11:41.613Z,8.2
2017-04-08T03:12:51.766Z,8.2
2017-04-08T03:14:01.672Z,8.17
2017-04-08T03:15:11.423Z,8.21
2017-04-08T03:16:21.366Z,8.24
2017-04-08T03:17:31.416Z,8.15
2017-04-08T03:18:41.293Z,8.23
2017-04-08T03:19:51.227Z,8.16
2017-04-08T03:21:00.815Z,8.25
2017-04-08T03:22:10.753Z,8.28
2017-04-08T03:23:20.800Z,8.27
2017-04-08T03:24:30.340Z,8.31
2017-04-08T03:25:40.307Z,8.3
2017-04-08T03:26:50.224Z,8.27
2017-04-08T03:28:00.121Z,8.31
2017-04-08T03:29:09.720Z,8.28
2017-04-08T03:30:19.877Z,8.3
2017-04-08T03:31:29.826Z,8.3
2017-04-08T03:32:39.718Z,8.28
2017-04-08T03:33:49.329Z,8.3
2017-04-08T03:34:59.222Z,8.27
2017-04-08T03:36:09.418Z,8.32
2017-04-08T03:37:19.004Z,8.24
2017-04-08T03:38:28.969Z,8.28
2017-04-08T03:39:38.599Z,8.28
2017-04-08T03:40:48.574Z,8.25
2017-04-08T03:41:58.788Z,8.23
2017-04-08T03:43:08.403Z,8.15
2017-04-08T03:44:17.378Z,8.28
2017-04-08T03:45:26.986Z,8.31
2017-04-08T03:46:36.923Z,8.34
2017-04-08T03:47:46.819Z,8.28
2017-04-08T03:48:56.718Z,8.24
2017-04-08T03:50:06.625Z,8.27
2017-04-08T03:51:16.220Z,8.24
2017-04-08T03:52:25.811Z,8.31
2017-04-08T03:53:35.688Z,8.27
2017-04-08T03:54:45.585Z,8.28
2017-04-08T03:55:54.887Z,8.15
2017-04-08T03:57:04.904Z,8.31
2017-04-08T03:58:14.845Z,8.3
2017-04-08T03:59:25.039Z,8.28
2017-04-08T04:00:34.621Z,8.28
2017-04-08T04:01:44.527Z,8.1
2017-04-08T04:02:54.118Z,8.23
2017-04-08T04:04:04.146Z,8.13
2017-04-08T04:05:13.666Z,8.16
2017-04-08T04:06:23.279Z,8.25
2017-04-08T04:07:33.202Z,8.13
2017-04-08T04:08:43.298Z,8.17
2017-04-08T04:09:53.205Z,8.13
2017-04-08T04:11:03.360Z,8.15
2017-04-08T04:12:13.291Z,8.2
2017-04-08T04:13:23.185Z,8.2
2017-04-08T04:14:33.101Z,8.23
2017-04-08T04:15:43.101Z,8.23
2017-04-08T04:16:53.248Z,8.21
2017-04-08T04:18:02.834Z,8.13
2017-04-08T04:19:12.430Z,8.2
2017-04-08T04:20:22.335Z,8.21
2017-04-08T04:21:32.306Z,8.21
2017-04-08T04:22:42.463Z,8.21
2017-04-08T04:23:52.388Z,8.2
2017-04-08T04:25:02.327Z,8.13
2017-04-08T04:26:11.907Z,8.16
2017-04-08T04:27:21.502Z,8.17
2017-04-08T04:28:31.757Z,8.16
2017-04-08T04:29:41.756Z,8.2
2017-04-08T04:30:51.662Z,8.15
2017-04-08T04:32:01.329Z,8.28
2017-04-08T04:33:11.323Z,8.25
2017-04-08T04:34:21.474Z,8.3
2017-04-08T04:35:30.819Z,8.28
2017-04-08T04:36:40.395Z,8.27
2017-04-08T04:37:50.361Z,8.31
2017-04-08T04:38:59.938Z,8.31
2017-04-08T04:40:09.512Z,8.28
2017-04-08T04:41:19.422Z,8.25
2017-04-08T04:42:29.377Z,8.25
2017-04-08T04:43:39.282Z,8.13
2017-04-08T04:44:49.169Z,8.23
2017-04-08T04:45:59.161Z,8.25
2017-04-08T04:47:09.141Z,8.3
2017-04-08T04:48:19.123Z,8.3
2017-04-08T04:49:29.057Z,8.27
2017-04-08T04:50:38.960Z,8.27
2017-04-08T04:51:49.234Z,8.27
2017-04-08T04:52:58.810Z,8.3
2017-04-08T04:54:07.874Z,8.28
2017-04-08T04:55:17.499Z,8.31
2017-04-08T04:56:27.403Z,8.27
2017-04-08T04:57:37.436Z,8.28
2017-04-08T04:58:47.044Z,8.31
2017-04-08T04:59:56.638Z,8.27
2017-04-08T05:01:06.314Z,8.27
2017-04-08T05:02:16.226Z,8.24
2017-04-08T05:03:26.423Z,8.28
2017-04-08T05:04:36.015Z,8.15
2017-04-08T05:05:45.920Z,8.25
2017-04-08T05:06:55.507Z,8.13
2017-04-08T05:08:05.142Z,8.23
2017-04-08T05:09:15.322Z,8.27
2017-04-08T05:10:24.915Z,8.28
2017-04-08T05:11:34.509Z,8.16
2017-04-08T05:12:44.454Z,8.31
2017-04-08T05:13:54.437Z,8.28
2017-04-08T05:15:04.643Z,8.27
2017-04-08T05:16:14.572Z,8.28
2017-04-08T05:17:24.156Z,8.24
2017-04-08T05:18:33.766Z,8.24
2017-04-08T05:19:43.776Z,8.27
2017-04-08T05:20:53.656Z,8.32
2017-04-08T05:22:03.607Z,8.28
2017-04-08T05:23:12.875Z,8.31
2017-04-08T05:24:22.793Z,8.32
2017-04-08T05:25:32.777Z,8.31
2017-04-08T05:26:42.624Z,8.34
2017-04-08T05:27:52.311Z,8.39
2017-04-08T05:29:01.578Z,8.28
2017-04-08T05:30:11.227Z,8.31
2017-04-08T05:31:20.813Z,8.32
2017-04-08T05:32:30.655Z,8.31
2017-04-08T05:33:39.983Z,8.31
2017-04-08T05:34:49.669Z,8.25
2017-04-08T05:35:59.349Z,8.3
2017-04-08T05:37:09.249Z,8.32
2017-04-08T05:38:19.467Z,8.3
2017-04-08T05:39:29.177Z,8.3
2017-04-08T05:40:38.826Z,8.37
2017-04-08T05:41:48.755Z,8.43
2017-04-08T05:42:58.763Z,8.4
2017-04-08T05:44:08.614Z,8.39
2017-04-08T05:45:18.241Z,8.34
2017-04-08T05:46:27.870Z,8.4
2017-04-08T05:47:37.555Z,8.4
2017-04-08T05:48:47.525Z,8.46
2017-04-08T05:49:57.882Z,8.52
2017-04-08T05:51:07.510Z,8.39
2017-04-08T05:52:17.437Z,8.45
2017-04-08T05:53:27.562Z,8.55
2017-04-08T05:54:37.538Z,8.52
2017-04-08T05:55:47.916Z,8.49
2017-04-08T05:56:57.910Z,8.6
2017-04-08T05:58:07.206Z,8.53
2017-04-08T05:59:16.798Z,8.53
2017-04-08T06:00:26.424Z,8.57
2017-04-08T06:01:36.602Z,8.53
2017-04-08T06:02:46.751Z,8.58
2017-04-08T06:03:56.728Z,8.5
2017-04-08T06:05:06.366Z,8.61
2017-04-08T06:06:15.633Z,8.64
2017-04-08T06:07:25.263Z,8.64
2017-04-08T06:08:35.188Z,8.6
2017-04-08T06:09:45.086Z,8.68
2017-04-08T06:10:54.995Z,8.64
2017-04-08T06:12:04.918Z,8.61
2017-04-08T06:13:14.819Z,8.7
2017-04-08T06:14:24.743Z,8.74
2017-04-08T06:15:34.168Z,8.82
2017-04-08T06:16:43.760Z,8.82
2017-04-08T06:17:53.346Z,8.8
2017-04-08T06:19:03.233Z,8.74
2017-04-08T06:20:13.194Z,8.77
2017-04-08T06:21:22.835Z,8.79
2017-04-08T06:22:32.775Z,8.8
2017-04-08T06:23:42.668Z,8.75
2017-04-08T06:24:52.859Z,8.9
2017-04-08T06:26:02.633Z,8.89
2017-04-08T06:27:12.228Z,8.95
2017-04-08T06:28:21.608Z,8.92
2017-04-08T06:29:31.558Z,8.9
2017-04-08T06:30:41.762Z,8.95
2017-04-08T06:31:51.692Z,8.89
2017-04-08T06:33:00.960Z,8.9
2017-04-08T06:34:10.607Z,9.01
2017-04-08T06:35:20.521Z,9.04
2017-04-08T06:36:30.732Z,8.93
2017-04-08T06:37:39.998Z,9.04
2017-04-08T06:38:49.650Z,9.05
2017-04-08T06:39:59.600Z,8.98
2017-04-08T06:41:09.503Z,9
2017-04-08T06:42:19.716Z,9
2017-04-08T06:43:29.638Z,9.04
2017-04-08T06:44:39.796Z,9.02
2017-04-08T06:45:49.704Z,9.01
2017-04-08T06:46:59.629Z,9.02
2017-04-08T06:48:09.549Z,9.09
2017-04-08T06:49:19.487Z,9.02
2017-04-08T06:50:29.391Z,9.04
2017-04-08T06:51:39.300Z,9.12
2017-04-08T06:52:49.443Z,9.05
2017-04-08T06:53:59.642Z,9.09
2017-04-08T06:55:09.646Z,9.12
2017-04-08T06:56:19.233Z,9.19
2017-04-08T06:57:29.217Z,9.19
2017-04-08T06:58:39.195Z,9.12
2017-04-08T06:59:49.434Z,9.23
2017-04-08T07:00:58.714Z,9.12
2017-04-08T07:02:08.515Z,9.15
2017-04-08T07:03:18.462Z,9.22
2017-04-08T07:04:28.054Z,9.15
2017-04-08T07:05:38.013Z,9.19
2017-04-08T07:06:47.961Z,9.17
2017-04-08T07:07:57.779Z,9.23
2017-04-08T07:09:07.779Z,9.23
2017-04-08T07:10:17.720Z,9.27
2017-04-08T07:11:27.983Z,9.27
2017-04-08T07:12:37.912Z,9.33
2017-04-08T07:13:47.914Z,9.35
2017-04-08T07:14:58.011Z,9.3
2017-04-08T07:16:07.667Z,9.47
2017-04-08T07:17:17.594Z,9.41
2017-04-08T07:18:27.527Z,9.44
2017-04-08T07:19:37.115Z,9.38
2017-04-08T07:20:47.028Z,9.52
2017-04-08T07:21:56.936Z,9.53
2017-04-08T07:23:07.268Z,9.56
2017-04-08T07:24:16.918Z,9.52
2017-04-08T07:25:26.852Z,9.52
2017-04-08T07:26:36.456Z,9.53
2017-04-08T07:27:46.048Z,9.55
2017-04-08T07:28:56.232Z,9.56
2017-04-08T07:30:05.817Z,9.52
2017-04-08T07:31:15.515Z,9.52
2017-04-08T07:32:25.112Z,9.56
2017-04-08T07:33:35.052Z,9.55
2017-04-08T07:34:45.211Z,9.55
2017-04-08T07:35:54.835Z,9.5
2017-04-08T07:37:04.425Z,9.58
2017-04-08T07:38:14.021Z,9.53
2017-04-08T07:39:23.323Z,9.52
2017-04-08T07:40:33.509Z,9.5
2017-04-08T07:41:43.099Z,9.53
2017-04-08T07:42:53.142Z,9.55
2017-04-08T07:44:03.109Z,9.55
2017-04-08T07:45:12.734Z,9.63
2017-04-08T07:46:22.917Z,9.63
2017-04-08T07:47:32.830Z,9.65
2017-04-08T07:48:42.748Z,9.65
2017-04-08T07:49:52.687Z,9.7
2017-04-08T07:51:01.970Z,9.78
2017-04-08T07:52:12.209Z,9.74
2017-04-08T07:53:22.133Z,9.84
2017-04-08T07:54:31.759Z,9.85
2017-04-08T07:55:41.034Z,9.92
2017-04-08T07:56:51.057Z,9.92
2017-04-08T07:58:00.972Z,10
2017-04-08T07:59:10.589Z,9.99
2017-04-08T08:00:20.497Z,9.99
2017-04-08T08:01:30.471Z,10.02
2017-04-08T08:02:40.466Z,10.03
2017-04-08T08:03:50.400Z,10.02
2017-04-08T08:05:00.346Z,9.96
2017-04-08T08:06:10.274Z,10
2017-04-08T08:07:20.182Z,10.02
2017-04-08T08:08:30.092Z,10.07
2017-04-08T08:09:40.305Z,10.02
2017-04-08T08:10:50.242Z,10.11
2017-04-08T08:11:59.814Z,10.11
2017-04-08T08:13:09.760Z,10.19
2017-04-08T08:14:19.382Z,10.26
2017-04-08T08:15:29.741Z,10.24
2017-04-08T08:16:39.411Z,10.27
2017-04-08T08:17:49.361Z,10.26
2017-04-08T08:18:59.012Z,10.27
2017-04-08T08:20:09.013Z,10.29
2017-04-08T08:21:18.858Z,10.24
2017-04-08T08:22:27.853Z,10.29
2017-04-08T08:23:37.481Z,10.32
2017-04-08T08:24:47.452Z,10.32
2017-04-08T08:25:57.414Z,10.39
2017-04-08T08:27:07.299Z,10.32
2017-04-08T08:28:17.241Z,10.37
2017-04-08T08:29:27.234Z,10.37
2017-04-08T08:30:37.180Z,10.36
2017-04-08T08:31:46.513Z,10.4
2017-04-08T08:32:56.660Z,10.45
2017-04-08T08:34:06.580Z,10.42
2017-04-08T08:35:16.497Z,10.48
2017-04-08T08:36:26.513Z,10.52
2017-04-08T08:37:36.424Z,10.58
2017-04-08T08:38:46.303Z,10.58
2017-04-08T08:39:56.232Z,10.61
2017-04-08T08:41:06.178Z,10.65
2017-04-08T08:42:16.106Z,10.72
2017-04-08T08:43:26.058Z,10.69
2017-04-08T08:44:36.243Z,10.73
2017-04-08T08:45:46.302Z,10.8
2017-04-08T08:46:55.912Z,10.85
2017-04-08T08:48:05.826Z,10.94
2017-04-08T08:49:15.466Z,11.08
2017-04-08T08:50:25.000Z,11.1
2017-04-08T08:51:34.640Z,11.24
2017-04-08T08:52:44.609Z,11.28
2017-04-08T08:53:54.662Z,11.33
2017-04-08T08:55:04.578Z,11.38
2017-04-08T08:56:14.782Z,11.4
2017-04-08T08:57:24.731Z,11.38
2017-04-08T08:58:34.698Z,11.34
2017-04-08T08:59:44.411Z,11.38
2017-04-08T09:00:54.416Z,11.46
2017-04-08T09:02:04.270Z,11.61
2017-04-08T09:03:14.140Z,11.59
2017-04-08T09:04:23.771Z,11.62
2017-04-08T09:05:33.670Z,11.68
2017-04-08T09:06:43.585Z,11.68
2017-04-08T09:07:53.785Z,11.68
2017-04-08T09:09:03.798Z,11.74
2017-04-08T09:10:13.706Z,11.77
2017-04-08T09:11:23.766Z,11.82
2017-04-08T09:12:33.044Z,11.91
2017-04-08T09:13:43.219Z,11.91
2017-04-08T09:14:53.261Z,11.97
2017-04-08T09:16:03.243Z,12.04
2017-04-08T09:17:13.240Z,12.07
2017-04-08T09:18:22.860Z,12.08
2017-04-08T09:19:33.037Z,12.04
2017-04-08T09:20:43.021Z,12.16
2017-04-08T09:21:52.969Z,12.2
2017-04-08T09:23:02.905Z,12.27
2017-04-08T09:24:12.901Z,12.24
2017-04-08T09:25:22.743Z,12.24
2017-04-08T09:26:32.408Z,12.17
2017-04-08T09:27:42.350Z,12.15
2017-04-08T09:28:52.254Z,12.24
2017-04-08T09:30:01.910Z,12.26
2017-04-08T09:31:11.761Z,12.24
2017-04-08T09:32:21.375Z,12.26
2017-04-08T09:33:31.323Z,12.16
2017-04-08T09:34:41.050Z,12.15
2017-04-08T09:35:50.643Z,12.24
2017-04-08T09:37:00.535Z,12.24
2017-04-08T09:38:10.504Z,12.05
2017-04-08T09:39:20.422Z,12.07
2017-04-08T09:40:30.338Z,12.11
2017-04-08T09:41:39.618Z,12.08
2017-04-08T09:42:49.222Z,12.05
2017-04-08T09:43:59.201Z,12.02
2017-04-08T09:45:09.206Z,12.08
2017-04-08T09:46:19.114Z,12.01
2017-04-08T09:47:29.104Z,12.01
2017-04-08T09:48:39.300Z,12.04
2017-04-08T09:49:48.640Z,11.89
2017-04-08T09:50:58.685Z,11.91
2017-04-08T09:52:08.349Z,11.91
2017-04-08T09:53:18.388Z,11.8
2017-04-08T09:54:28.595Z,11.79
2017-04-08T09:55:38.505Z,11.82
2017-04-08T09:56:48.431Z,11.82
2017-04-08T09:57:58.022Z,11.8
2017-04-08T09:59:07.630Z,11.76
2017-04-08T10:00:17.474Z,11.76
2017-04-08T10:01:27.477Z,11.72
2017-04-08T10:02:37.623Z,11.77
2017-04-08T10:03:47.538Z,11.89
2017-04-08T10:04:57.452Z,11.97
2017-04-08T10:06:07.355Z,11.94
2017-04-08T10:07:16.980Z,12.07
2017-04-08T10:08:26.570Z,12.08
2017-04-08T10:09:36.171Z,12.24
2017-04-08T10:10:45.921Z,12.24
2017-04-08T10:11:55.529Z,12.09
2017-04-08T10:13:05.630Z,12.27
2017-04-08T10:14:14.896Z,12.34
2017-04-08T10:15:24.809Z,12.27
2017-04-08T10:16:34.417Z,12.35
2017-04-08T10:17:44.702Z,12.41
2017-04-08T10:18:54.714Z,12.44
2017-04-08T10:20:04.618Z,12.47
2017-04-08T10:21:13.575Z,12.55
2017-04-08T10:22:24.277Z,12.66
2017-04-08T10:23:34.782Z,12.74
2017-04-08T10:24:46.278Z,12.8
2017-04-08T10:25:56.455Z,12.89
2017-04-08T10:27:06.982Z,12.95
2017-04-08T10:28:17.285Z,12.93
2017-04-08T10:29:29.054Z,13.04
2017-04-08T10:30:39.588Z,13.03
2017-04-08T10:31:49.767Z,13.08
2017-04-08T10:33:00.314Z,13.08
2017-04-08T10:34:10.514Z,13.12
2017-04-08T10:35:20.774Z,13.12
2017-04-08T10:36:32.289Z,13.04
2017-04-08T10:37:42.881Z,12.92
2017-04-08T10:38:52.787Z,12.96
2017-04-08T10:40:03.295Z,12.95
2017-04-08T10:41:13.410Z,12.84
2017-04-08T10:42:23.597Z,12.81
2017-04-08T10:43:34.195Z,12.84
2017-04-08T10:44:44.741Z,12.81
2017-04-08T10:45:55.003Z,12.78
2017-04-08T10:47:05.888Z,12.82
2017-04-08T10:48:16.126Z,12.82
2017-04-08T10:49:27.640Z,12.82
2017-04-08T10:50:38.143Z,12.66
2017-04-08T10:51:48.423Z,12.8
2017-04-08T10:52:59.255Z,12.71
2017-04-08T10:54:09.803Z,12.68
2017-04-08T10:55:20.333Z,12.68
2017-04-08T10:56:30.560Z,12.6
2017-04-08T10:57:40.929Z,12.66
2017-04-08T10:58:51.427Z,12.55
2017-04-08T11:00:02.080Z,12.6
2017-04-08T11:01:12.583Z,12.55
2017-04-08T11:02:22.830Z,12.5
2017-04-08T11:03:32.776Z,12.38
2017-04-08T11:04:43.684Z,12.38
2017-04-08T11:05:54.224Z,12.29
2017-04-08T11:07:04.780Z,12.26
2017-04-08T11:08:15.337Z,12.34
2017-04-08T11:09:25.906Z,12.23
2017-04-08T11:10:36.662Z,12.27
2017-04-08T11:11:46.521Z,12.19
2017-04-08T11:12:57.127Z,12.16
2017-04-08T11:14:07.674Z,12.11
2017-04-08T11:15:18.226Z,12.09
2017-04-08T11:16:29.043Z,12.05
2017-04-08T11:17:39.630Z,12.09
2017-04-08T11:18:50.205Z,12.08
2017-04-08T11:20:00.150Z,12.09
2017-04-08T11:21:10.728Z,12.13
2017-04-08T11:22:21.818Z,12.24
2017-04-08T11:23:32.310Z,12.31
2017-04-08T11:24:41.943Z,12.24
2017-04-08T11:25:52.185Z,12.13
2017-04-08T11:27:02.693Z,12.11
2017-04-08T11:28:13.254Z,12.19
2017-04-08T11:29:23.803Z,12.27
2017-04-08T11:30:33.942Z,12.26
2017-04-08T11:31:44.180Z,12.27
2017-04-08T11:32:54.375Z,12.37
2017-04-08T11:34:05.175Z,12.39
2017-04-08T11:35:15.695Z,12.41
2017-04-08T11:36:25.926Z,12.35
2017-04-08T11:37:36.198Z,12.42
2017-04-08T11:38:46.759Z,12.47
2017-04-08T11:39:57.503Z,12.55
2017-04-08T11:41:08.085Z,12.63
2017-04-08T11:42:18.633Z,12.82
2017-04-08T11:43:28.887Z,13.03
2017-04-08T11:44:39.125Z,13.22
2017-04-08T11:45:49.961Z,13.49
2017-04-08T11:46:59.856Z,13.69
2017-04-08T11:48:10.403Z,13.74
2017-04-08T11:49:20.638Z,13.94
2017-04-08T11:50:31.437Z,13.89
2017-04-08T11:51:42.200Z,13.91
2017-04-08T11:52:52.754Z,13.86
2017-04-08T11:54:04.254Z,13.86
2017-04-08T11:55:14.786Z,13.74
2017-04-08T11:56:25.081Z,13.73
2017-04-08T11:57:35.885Z,13.58
2017-04-08T11:58:46.423Z,13.59
2017-04-08T11:59:56.605Z,13.46
2017-04-08T12:01:07.178Z,13.4
2017-04-08T12:02:17.647Z,13.3
2017-04-08T12:03:28.504Z,13.33
2017-04-08T12:04:38.693Z,13.46
2017-04-08T12:05:49.218Z,13.36
2017-04-08T12:06:59.930Z,13.49
2017-04-08T12:08:10.131Z,13.64
2017-04-08T12:09:20.710Z,13.77
2017-04-08T12:10:30.927Z,14.09
2017-04-08T12:11:40.949Z,14.26
2017-04-08T12:12:51.285Z,14.51
2017-04-08T12:14:01.878Z,14.67
2017-04-08T12:15:12.107Z,14.87
2017-04-08T12:16:22.655Z,14.96
2017-04-08T12:17:33.164Z,15.13
2017-04-08T12:18:43.374Z,15.27
2017-04-08T12:19:53.920Z,15.14
2017-04-08T12:21:05.123Z,15.02
2017-04-08T12:22:15.667Z,14.95
2017-04-08T12:23:25.903Z,14.8
2017-04-08T12:24:36.130Z,14.8
2017-04-08T12:25:46.390Z,14.74
2017-04-08T12:26:57.256Z,14.67
2017-04-08T12:28:08.043Z,14.34
2017-04-08T12:29:18.592Z,14.25
2017-04-08T12:30:28.813Z,14.03
2017-04-08T12:31:40.338Z,13.89
2017-04-08T12:32:50.800Z,13.74
2017-04-08T12:34:02.316Z,13.7
2017-04-08T12:35:12.817Z,13.67
2017-04-08T12:36:23.381Z,13.52
2017-04-08T12:37:33.256Z,13.4
2017-04-08T12:38:44.969Z,13.23
2017-04-08T12:39:55.209Z,13.19
2017-04-08T12:41:05.824Z,13.15
2017-04-08T12:42:16.353Z,12.96
2017-04-08T12:43:26.864Z,12.96
2017-04-08T12:44:37.815Z,12.88
2017-04-08T12:45:48.038Z,12.81
2017-04-08T12:46:58.584Z,12.63
2017-04-08T12:48:09.138Z,12.6
2017-04-08T12:49:19.423Z,12.59
2017-04-08T12:50:29.913Z,12.55
2017-04-08T12:51:40.422Z,12.47
2017-04-08T12:52:50.406Z,12.42
2017-04-08T12:54:01.239Z,12.38
2017-04-08T12:55:11.476Z,12.37
2017-04-08T12:56:21.985Z,12.38
2017-04-08T12:57:32.599Z,12.45
2017-04-08T12:58:43.100Z,12.42
2017-04-08T12:59:53.658Z,12.44
2017-04-08T13:01:04.178Z,12.35
2017-04-08T13:02:14.397Z,12.47
2017-04-08T13:03:24.964Z,12.56
2017-04-08T13:04:35.573Z,12.56
2017-04-08T13:05:46.983Z,12.56
2017-04-08T13:06:57.522Z,12.6
2017-04-08T13:08:07.771Z,12.66
2017-04-08T13:09:17.974Z,12.82
2017-04-08T13:10:28.186Z,12.95
2017-04-08T13:11:38.965Z,12.95
2017-04-08T13:12:49.562Z,13
2017-04-08T13:14:00.087Z,13.08
2017-04-08T13:15:10.312Z,13.03
2017-04-08T13:16:20.822Z,13.04
2017-04-08T13:17:31.373Z,13.08
2017-04-08T13:18:41.595Z,13.03
2017-04-08T13:19:51.805Z,13.03
2017-04-08T13:21:03.404Z,13.01
2017-04-08T13:22:13.959Z,12.96
2017-04-08T13:23:24.718Z,13.09
2017-04-08T13:24:34.989Z,12.96
2017-04-08T13:25:45.186Z,12.89
2017-04-08T13:26:55.785Z,12.95
2017-04-08T13:28:06.479Z,12.89
2017-04-08T13:29:17.302Z,12.85
2017-04-08T13:30:27.635Z,12.92
2017-04-08T13:31:39.211Z,12.97
2017-04-08T13:32:49.840Z,12.85
2017-04-08T13:34:00.079Z,13.04
2017-04-08T13:35:10.922Z,13.04
2017-04-08T13:36:21.111Z,13.11
2017-04-08T13:37:31.631Z,13.01
2017-04-08T13:38:43.244Z,13.03
2017-04-08T13:39:53.367Z,13.13
2017-04-08T13:41:04.154Z,13.12
2017-04-08T13:42:14.674Z,13.09
2017-04-08T13:43:24.876Z,13.04
2017-04-08T13:44:35.547Z,13.04
2017-04-08T13:45:46.149Z,13.01
2017-04-08T13:46:56.590Z,13.01
2017-04-08T13:48:06.782Z,13
2017-04-08T13:49:17.397Z,12.96
2017-04-08T13:50:27.550Z,12.89
2017-04-08T13:51:38.183Z,12.89
2017-04-08T13:52:49.099Z,12.88
2017-04-08T13:53:59.287Z,13.04
2017-04-08T13:55:09.924Z,13.03
2017-04-08T13:56:20.481Z,13.03
2017-04-08T13:57:30.679Z,13.23
2017-04-08T13:58:41.524Z,13.33
2017-04-08T13:59:52.101Z,13.41
2017-04-08T14:01:02.687Z,13.54
2017-04-08T14:02:12.949Z,13.67
2017-04-08T14:03:23.174Z,13.69
2017-04-08T14:04:34.043Z,13.7
2017-04-08T14:05:45.691Z,13.64
2017-04-08T14:06:56.332Z,13.7
2017-04-08T14:08:06.867Z,13.82
2017-04-08T14:09:17.392Z,13.84
2017-04-08T14:10:28.252Z,13.81
2017-04-08T14:11:38.801Z,13.84
2017-04-08T14:12:49.384Z,13.76
2017-04-08T14:14:00.890Z,13.74
2017-04-08T14:15:11.438Z,13.67
2017-04-08T14:16:21.990Z,13.63
2017-04-08T14:17:32.550Z,13.59
2017-04-08T14:18:44.108Z,13.55
2017-04-08T14:19:54.731Z,13.56
2017-04-08T14:21:06.284Z,13.55
2017-04-08T14:22:16.033Z,13.54
2017-04-08T14:23:27.521Z,13.66
2017-04-08T14:24:39.044Z,13.58
2017-04-08T14:25:49.564Z,13.51
2017-04-08T14:26:59.826Z,13.61
2017-04-08T14:28:10.686Z,13.55
2017-04-08T14:29:21.216Z,13.52
2017-04-08T14:30:31.738Z,13.49
2017-04-08T14:31:42.443Z,13.58
2017-04-08T14:32:52.633Z,13.64
2017-04-08T14:34:03.386Z,13.54
2017-04-08T14:35:13.543Z,13.55
2017-04-08T14:36:24.245Z,13.54
2017-04-08T14:37:34.774Z,13.55
2017-04-08T14:38:45.338Z,13.55
2017-04-08T14:39:57.082Z,13.56
2017-04-08T14:41:07.668Z,13.56
2017-04-08T14:42:18.222Z,13.66
2017-04-08T14:43:28.099Z,13.67
2017-04-08T14:44:38.352Z,13.59
2017-04-08T14:45:49.146Z,13.61
2017-04-08T14:46:59.127Z,13.58
2017-04-08T14:48:09.741Z,13.67
2017-04-08T14:49:20.252Z,13.66
2017-04-08T14:50:30.812Z,13.74
2017-04-08T14:51:41.722Z,13.7
2017-04-08T14:52:51.960Z,13.74
2017-04-08T14:54:02.186Z,13.67
2017-04-08T14:55:12.057Z,13.61
2017-04-08T14:56:22.600Z,13.64
2017-04-08T14:57:33.422Z,13.58
2017-04-08T14:58:43.603Z,13.64
2017-04-08T14:59:54.157Z,13.56
2017-04-08T15:01:04.354Z,13.56
2017-04-08T15:02:15.211Z,13.52
2017-04-08T15:03:25.840Z,13.41
2017-04-08T15:04:36.349Z,13.45
2017-04-08T15:05:46.612Z,13.44
2017-04-08T15:06:58.172Z,13.41
2017-04-08T15:08:08.692Z,13.4
2017-04-08T15:09:19.222Z,13.41
2017-04-08T15:10:30.925Z,13.34
2017-04-08T15:11:41.213Z,13.36
2017-04-08T15:12:51.441Z,13.34
2017-04-08T15:14:01.749Z,13.26
2017-04-08T15:15:12.552Z,13.3
2017-04-08T15:16:23.113Z,13.3
2017-04-08T15:17:33.647Z,13.22
2017-04-08T15:18:44.167Z,13.16
2017-04-08T15:19:54.358Z,13.12
2017-04-08T15:21:05.211Z,13.08
2017-04-08T15:22:16.734Z,13.11